Time;durP1;ratioP1;P1;durP2;ratioP2;P2;SDS_P1;SDS_P2;PMS_P1;PMS_P2;Temp;Humidity;BMP_temperature;BMP_pressure;BME280_temperature;BME280_humidity;BME280_pressure;Samples;Min_cycle;Max_cycle;Signal;HPM_P1;HPM_P2
2023/02/08 00:01:22;;;;;;;21.10;10.20;;;;;;;-8.09;72.70;97424.67;106594;1276;25519;-62
2023/02/08 00:03:51;;;;;;;22.50;10.30;;;;;;;-8.08;73.46;97429.29;106602;1276;22596;-62
2023/02/08 00:06:20;;;;;;;13.60;6.80;;;;;;;-8.10;72.81;97426.70;106634;1276;22653;-62
2023/02/08 00:08:48;;;;;;;19.00;9.10;;;;;;;-8.14;73.02;97440.17;106682;1276;24256;-63
2023/02/08 00:11:16;;;;;;;21.40;9.20;;;;;;;-8.18;73.43;97440.38;106690;1276;22691;-62
2023/02/08 00:13:45;;;;;;;18.40;8.10;;;;;;;-8.22;73.19;97441.20;106481;1276;22760;-62
2023/02/08 00:16:14;;;;;;;21.80;10.20;;;;;;;-8.30;73.54;97450.48;106577;1276;22658;-62
2023/02/08 00:18:42;;;;;;;18.20;9.40;;;;;;;-8.42;74.60;97463.11;106626;1276;24267;-62
2023/02/08 00:21:13;;;;;;;18.80;9.10;;;;;;;-8.40;74.28;97462.95;106562;1276;22703;-62
2023/02/08 00:23:41;;;;;;;20.30;10.50;;;;;;;-8.37;75.49;97459.75;106625;1276;22691;-62
2023/02/08 00:26:10;;;;;;;14.00;7.00;;;;;;;-8.35;74.62;97457.90;106523;1276;22723;-62
2023/02/08 00:28:38;;;;;;;36.60;17.30;;;;;;;-8.31;75.61;97458.55;106572;1274;22654;-62
2023/02/08 00:31:07;;;;;;;19.80;8.00;;;;;;;-8.31;74.91;97453.51;106533;1276;22642;-62
2023/02/08 00:33:35;;;;;;;27.30;11.60;;;;;;;-8.32;74.95;97459.04;106600;1276;23432;-62
2023/02/08 00:36:06;;;;;;;56.20;24.50;;;;;;;-8.33;75.62;97460.77;106503;1276;24256;-62
2023/02/08 00:38:35;;;;;;;47.00;19.70;;;;;;;-8.32;75.65;97464.48;106625;1276;22627;-62
2023/02/08 00:41:04;;;;;;;69.30;29.50;;;;;;;-8.18;75.46;97459.64;106580;1276;22558;-62
2023/02/08 00:43:32;;;;;;;42.50;17.20;;;;;;;-8.14;74.79;97461.54;106608;1276;25745;-62
2023/02/08 00:46:01;;;;;;;28.90;12.10;;;;;;;-8.17;74.68;97463.15;106480;1276;22557;-62
2023/02/08 00:48:30;;;;;;;53.20;21.90;;;;;;;-8.22;74.81;97470.60;106623;1276;22588;-62
2023/02/08 00:51:05;;;;;;;66.60;28.80;;;;;;;-8.18;74.92;97469.40;106558;1276;22816;-62
2023/02/08 00:53:38;;;;;;;38.60;16.60;;;;;;;-8.14;74.54;97469.05;106587;1276;22601;-62
2023/02/08 00:56:08;;;;;;;18.00;7.90;;;;;;;-8.09;74.46;97468.58;106476;1276;24443;-62
2023/02/08 00:58:37;;;;;;;18.70;7.10;;;;;;;-8.09;74.11;97463.79;106584;1276;24209;-63
2023/02/08 01:01:06;;;;;;;13.90;7.30;;;;;;;-8.20;73.31;97472.61;106564;1276;25495;-62
2023/02/08 01:03:37;;;;;;;23.50;12.20;;;;;;;-8.42;73.51;97478.33;106581;1276;22591;-62
2023/02/08 01:06:08;;;;;;;20.40;8.50;;;;;;;-8.62;73.32;97478.58;106589;1276;22653;-62
2023/02/08 01:08:36;;;;;;;29.70;13.20;;;;;;;-8.70;74.55;97479.20;106521;1276;22623;-62
2023/02/08 01:11:17;;;;;;;27.40;12.70;;;;;;;-8.74;74.97;97483.55;106468;1276;25582;-63
2023/02/08 01:13:46;;;;;;;10.90;5.80;;;;;;;-8.81;73.91;97486.86;106569;1276;22616;-62
2023/02/08 01:16:17;;;;;;;10.90;5.20;;;;;;;-8.92;74.07;97486.06;106558;1276;22653;-62
2023/02/08 01:18:48;;;;;;;9.30;4.80;;;;;;;-8.99;74.00;97493.15;106482;1276;22573;-62
2023/02/08 01:21:20;;;;;;;10.40;5.30;;;;;;;-9.12;74.27;97495.90;106497;1276;25596;-62
2023/02/08 01:23:49;;;;;;;11.70;4.90;;;;;;;-9.18;74.09;97491.99;106698;1276;22778;-62
2023/02/08 01:26:18;;;;;;;11.50;5.50;;;;;;;-9.30;73.74;97495.91;106584;1276;22859;-62
2023/02/08 01:28:47;;;;;;;9.80;4.40;;;;;;;-9.29;74.33;97498.19;106480;1276;22726;-62
2023/02/08 01:31:19;;;;;;;10.50;5.20;;;;;;;-9.31;74.19;97502.65;106575;1276;25501;-62
2023/02/08 01:33:48;;;;;;;12.10;5.60;;;;;;;-9.30;74.33;97500.69;106546;1276;22590;-62
2023/02/08 01:36:16;;;;;;;10.60;5.00;;;;;;;-9.31;74.29;97506.23;106546;1265;28125;-62
2023/02/08 01:38:45;;;;;;;12.40;5.80;;;;;;;-9.26;74.64;97504.71;106435;1276;25429;-62
2023/02/08 01:41:21;;;;;;;11.50;6.10;;;;;;;-9.25;74.51;97502.27;106591;1276;25449;-62
2023/02/08 01:43:58;;;;;;;13.10;5.20;;;;;;;-9.41;73.52;97508.09;106326;1276;22743;-62
2023/02/08 01:46:28;;;;;;;10.90;5.00;;;;;;;-9.63;73.74;97510.77;106598;1276;22676;-62
2023/02/08 01:49:09;;;;;;;12.10;5.20;;;;;;;-9.70;74.19;97512.97;106593;1276;22985;-62
2023/02/08 01:51:47;;;;;;;13.40;5.90;;;;;;;-9.76;74.43;97511.38;106583;1276;23195;-62
2023/02/08 01:54:18;;;;;;;9.80;4.70;;;;;;;-9.67;74.86;97513.05;106595;1276;24326;-62
2023/02/08 01:56:48;;;;;;;8.20;4.40;;;;;;;-9.60;74.57;97518.83;106564;1276;26908;-62
2023/02/08 01:59:26;;;;;;;14.00;5.40;;;;;;;-9.65;73.93;97524.16;106505;1276;22838;-62
2023/02/08 02:01:57;;;;;;;13.90;6.00;;;;;;;-9.70;73.94;97528.33;106596;1276;25486;-62
2023/02/08 02:04:26;;;;;;;9.20;4.20;;;;;;;-9.69;74.28;97525.43;106444;1259;25757;-62
2023/02/08 02:06:57;;;;;;;11.70;5.50;;;;;;;-9.77;73.74;97520.86;106523;1276;22623;-62
2023/02/08 02:09:54;;;;;;;11.00;5.10;;;;;;;-9.80;73.84;97527.73;106438;1276;24977;-62
2023/02/08 02:12:23;;;;;;;16.10;5.70;;;;;;;-9.76;73.93;97527.89;106584;1276;22711;-61
2023/02/08 02:14:51;;;;;;;8.90;4.20;;;;;;;-9.92;73.43;97526.34;106568;1259;23026;-62
2023/02/08 02:17:20;;;;;;;10.40;5.10;;;;;;;-10.17;73.38;97526.91;106594;1276;22617;-62
2023/02/08 02:20:02;;;;;;;9.10;5.10;;;;;;;-10.11;74.64;97524.27;106556;1267;24216;-62
2023/02/08 02:22:30;;;;;;;11.60;5.40;;;;;;;-10.09;74.97;97531.64;106577;1276;25470;-61
2023/02/08 02:25:04;;;;;;;11.10;4.50;;;;;;;-10.04;74.70;97539.95;106562;1255;22958;-62
2023/02/08 02:27:44;;;;;;;11.30;4.00;;;;;;;-10.08;74.04;97540.76;106571;1276;22554;-61
2023/02/08 02:30:54;;;;;;;11.40;4.70;;;;;;;-10.13;73.76;97539.75;106558;1276;24980;-61
2023/02/08 02:33:41;;;;;;;6.80;2.70;;;;;;;-10.17;74.06;97544.78;106563;1276;22802;-62
2023/02/08 02:36:34;;;;;;;9.60;4.00;;;;;;;-10.28;73.88;97553.34;106470;1276;25500;-62
2023/02/08 02:39:26;;;;;;;9.60;4.60;;;;;;;-10.25;74.15;97561.69;106603;1276;26061;-62
2023/02/08 02:45:11;;;;;;;7.70;2.80;;;;;;;-10.24;73.79;97558.84;106522;1276;23062;-61
2023/02/08 02:47:54;;;;;;;9.70;4.90;;;;;;;-10.33;73.79;97568.42;106619;1276;24254;-62
2023/02/08 02:50:28;;;;;;;10.40;4.70;;;;;;;-10.31;74.21;97563.16;106548;1265;22650;-64
2023/02/08 02:53:16;;;;;;;10.70;5.30;;;;;;;-10.24;74.25;97565.66;106629;1276;25162;-63
2023/02/08 02:55:58;;;;;;;8.90;4.10;;;;;;;-10.22;73.91;97567.64;106582;1276;22678;-63
2023/02/08 02:58:27;;;;;;;12.70;5.20;;;;;;;-10.23;74.03;97575.59;106532;1276;22886;-64
2023/02/08 03:00:58;;;;;;;13.90;6.70;;;;;;;-10.20;74.26;97575.14;106601;1276;22744;-63
2023/02/08 03:03:30;;;;;;;13.20;5.80;;;;;;;-10.19;74.68;97578.18;106564;1276;22644;-64
2023/02/08 03:06:06;;;;;;;10.40;5.00;;;;;;;-10.17;74.67;97578.99;106647;1276;24209;-63
2023/02/08 03:08:46;;;;;;;19.30;9.20;;;;;;;-10.20;74.62;97578.23;106623;1276;24207;-63
2023/02/08 03:11:20;;;;;;;20.20;10.50;;;;;;;-10.11;75.28;97582.94;106554;1276;22766;-63
2023/02/08 03:14:06;;;;;;;12.20;5.20;;;;;;;-10.08;74.62;97586.69;106573;1276;24254;-63
2023/02/08 03:16:51;;;;;;;9.90;5.10;;;;;;;-10.15;74.34;97583.15;106590;1276;22806;-63
2023/02/08 03:19:33;;;;;;;10.90;4.50;;;;;;;-10.18;74.27;97586.59;106548;1276;24293;-63
2023/02/08 03:22:15;;;;;;;13.30;5.60;;;;;;;-10.15;74.10;97590.13;106576;1276;22646;-63
2023/02/08 03:24:53;;;;;;;16.90;7.80;;;;;;;-10.14;74.12;97585.31;106567;1276;22498;-61
2023/02/08 03:27:33;;;;;;;10.50;4.50;;;;;;;-10.15;73.95;97584.82;106557;1276;22832;-63
2023/02/08 03:30:11;;;;;;;10.20;4.50;;;;;;;-10.18;73.86;97591.05;106599;1276;24333;-63
2023/02/08 03:32:46;;;;;;;9.60;4.60;;;;;;;-10.22;73.91;97589.26;106586;1276;22717;-63
2023/02/08 03:35:22;;;;;;;10.70;4.70;;;;;;;-10.24;74.05;97593.55;106580;1276;22690;-63
2023/02/08 03:37:58;;;;;;;11.40;5.40;;;;;;;-10.16;74.47;97600.00;106602;1276;25620;-63
2023/02/08 03:40:50;;;;;;;9.70;5.30;;;;;;;-10.10;73.91;97601.98;106526;1276;22584;-63
2023/02/08 03:43:36;;;;;;;11.60;5.40;;;;;;;-10.08;74.01;97604.70;106609;1276;22613;-63
2023/02/08 03:46:39;;;;;;;9.20;4.80;;;;;;;-10.07;73.73;97602.27;106521;1254;23034;-63
2023/02/08 03:49:13;;;;;;;10.30;5.20;;;;;;;-9.98;74.31;97606.67;106317;1276;22634;-63
2023/02/08 03:51:43;;;;;;;9.40;4.90;;;;;;;-9.96;73.37;97606.34;106550;1276;22703;-63
2023/02/08 03:54:18;;;;;;;12.90;5.70;;;;;;;-9.96;73.54;97608.51;106500;1276;25600;-63
2023/02/08 03:57:09;;;;;;;10.00;4.00;;;;;;;-9.95;73.03;97612.66;106588;1276;22916;-63
2023/02/08 03:59:43;;;;;;;6.50;3.60;;;;;;;-10.17;72.42;97617.60;106563;1270;23130;-63
2023/02/08 04:02:18;;;;;;;6.60;3.30;;;;;;;-10.36;72.05;97615.58;106457;1276;24424;-63
2023/02/08 04:04:50;;;;;;;9.70;4.90;;;;;;;-10.58;72.17;97617.95;106566;1276;24181;-63
2023/02/08 04:07:18;;;;;;;10.00;5.10;;;;;;;-10.56;73.05;97618.16;106518;1276;22610;-63
2023/02/08 04:09:47;;;;;;;8.90;4.50;;;;;;;-10.62;72.91;97615.52;106493;1276;22671;-63
2023/02/08 04:12:15;;;;;;;11.60;4.00;;;;;;;-10.68;72.68;97620.95;106648;1276;24274;-63
2023/02/08 04:14:43;;;;;;;11.00;4.70;;;;;;;-10.81;72.23;97623.96;106561;1276;22667;-63
2023/02/08 04:17:11;;;;;;;11.30;5.20;;;;;;;-10.85;72.97;97626.74;106541;1276;24754;-63
2023/02/08 04:19:39;;;;;;;10.20;4.50;;;;;;;-10.76;73.36;97625.64;106548;1276;22571;-63
2023/02/08 04:22:07;;;;;;;11.50;5.40;;;;;;;-10.76;72.95;97627.65;106568;1254;22987;-63
2023/02/08 04:24:36;;;;;;;8.50;3.90;;;;;;;-10.81;72.78;97634.45;106534;1276;25460;-63
2023/02/08 04:27:04;;;;;;;7.90;4.30;;;;;;;-10.96;72.60;97640.89;106611;1276;22658;-63
2023/02/08 04:29:33;;;;;;;8.60;4.30;;;;;;;-11.01;72.90;97644.11;106540;1276;24343;-63
2023/02/08 04:32:01;;;;;;;8.00;4.10;;;;;;;-11.10;72.96;97647.21;106575;1276;23191;-63
2023/02/08 04:34:29;;;;;;;8.90;4.20;;;;;;;-11.10;73.21;97649.71;106542;1276;24201;-64
2023/02/08 04:36:57;;;;;;;10.20;3.50;;;;;;;-11.21;72.75;97654.44;106560;1276;22737;-63
2023/02/08 04:39:25;;;;;;;8.00;4.10;;;;;;;-11.41;72.29;97654.66;106575;1276;22689;-63
2023/02/08 04:41:54;;;;;;;4.90;2.90;;;;;;;-11.57;73.39;97656.88;106541;1276;25537;-63
2023/02/08 04:44:22;;;;;;;8.10;4.00;;;;;;;-11.65;73.19;97663.55;106551;1261;22636;-63
2023/02/08 04:46:51;;;;;;;9.10;4.20;;;;;;;-11.68;73.84;97666.81;106609;1276;22592;-63
2023/02/08 04:49:19;;;;;;;8.10;3.80;;;;;;;-11.69;74.32;97665.56;106644;1276;25593;-63
2023/02/08 04:51:47;;;;;;;8.60;3.70;;;;;;;-11.63;74.02;97669.91;106580;1276;22724;-62
2023/02/08 04:54:15;;;;;;;6.30;3.30;;;;;;;-11.64;73.98;97668.92;106569;1276;25547;-64
2023/02/08 04:56:44;;;;;;;9.60;4.40;;;;;;;-11.69;74.16;97676.89;106575;1260;22881;-65
2023/02/08 04:59:13;;;;;;;10.90;4.50;;;;;;;-11.69;74.54;97681.52;106296;1276;22594;-65
2023/02/08 05:01:41;;;;;;;12.20;5.10;;;;;;;-11.68;74.51;97687.91;106562;1276;22564;-65
2023/02/08 05:04:10;;;;;;;14.30;7.00;;;;;;;-11.73;74.33;97689.91;106609;1269;22630;-64
2023/02/08 05:06:38;;;;;;;9.20;4.20;;;;;;;-11.75;74.60;97696.51;106523;1270;24766;-65
2023/02/08 05:09:08;;;;;;;11.40;4.80;;;;;;;-11.72;74.27;97703.72;106139;1276;657376;-65
2023/02/08 05:11:38;;;;;;;6.20;3.80;;;;;;;-11.67;74.25;97704.16;106580;1276;26832;-65
2023/02/08 05:14:06;;;;;;;10.50;4.80;;;;;;;-11.71;74.24;97710.35;106595;1256;23010;-65
2023/02/08 05:16:34;;;;;;;13.50;5.50;;;;;;;-11.77;73.91;97711.65;106583;1276;22589;-65
2023/02/08 05:19:02;;;;;;;7.00;3.50;;;;;;;-11.78;74.47;97715.09;106546;1267;22603;-65
2023/02/08 05:21:30;;;;;;;8.80;4.00;;;;;;;-11.77;74.61;97719.80;106562;1276;24080;-65
2023/02/08 05:23:59;;;;;;;11.80;5.70;;;;;;;-11.72;74.63;97717.39;106561;1276;24237;-65
2023/02/08 05:26:27;;;;;;;14.10;5.40;;;;;;;-11.59;74.74;97725.29;106561;1276;22644;-65
2023/02/08 05:28:55;;;;;;;9.80;5.30;;;;;;;-11.50;74.21;97724.31;106566;1276;24466;-65
2023/02/08 05:31:24;;;;;;;9.00;4.10;;;;;;;-11.55;73.59;97727.06;106455;1276;25598;-65
2023/02/08 05:33:53;;;;;;;8.60;4.30;;;;;;;-11.62;73.70;97734.81;106604;1276;22821;-65
2023/02/08 05:36:22;;;;;;;13.50;6.60;;;;;;;-11.62;74.75;97733.25;106535;1276;24346;-65
2023/02/08 05:38:50;;;;;;;22.80;11.10;;;;;;;-11.43;75.24;97733.52;106539;1269;22817;-65
2023/02/08 05:41:18;;;;;;;18.40;8.50;;;;;;;-11.30;74.67;97737.61;106601;1276;24242;-65
2023/02/08 05:43:47;;;;;;;12.10;5.10;;;;;;;-11.34;74.16;97738.81;106585;1276;22551;-65
2023/02/08 05:46:15;;;;;;;35.50;17.70;;;;;;;-11.28;74.61;97739.86;106557;1276;24326;-65
2023/02/08 05:48:44;;;;;;;38.50;18.60;;;;;;;-11.23;74.33;97739.39;106532;1276;22694;-65
2023/02/08 05:51:12;;;;;;;15.80;9.00;;;;;;;-11.26;73.89;97741.79;106582;1276;22732;-65
2023/02/08 05:53:42;;;;;;;12.10;5.10;;;;;;;-11.32;73.40;97750.20;106472;1254;24300;-65
2023/02/08 05:56:10;;;;;;;12.90;4.60;;;;;;;-11.34;73.81;97747.98;106623;1276;22979;-65
2023/02/08 05:58:38;;;;;;;7.90;4.10;;;;;;;-11.39;73.81;97755.47;106572;1276;22690;-65
2023/02/08 06:01:09;;;;;;;9.20;4.20;;;;;;;-11.39;73.76;97759.76;106561;1276;25561;-65
2023/02/08 06:03:38;;;;;;;11.00;3.80;;;;;;;-11.40;74.09;97765.57;106581;1276;25490;-66
2023/02/08 06:06:09;;;;;;;18.60;7.30;;;;;;;-11.44;73.81;97771.15;106602;1276;22639;-67
2023/02/08 06:08:39;;;;;;;19.90;8.50;;;;;;;-11.49;74.03;97773.96;106573;1276;23283;-69
2023/02/08 06:11:07;;;;;;;25.70;12.30;;;;;;;-11.42;74.95;97776.72;106434;1276;26711;-67
2023/02/08 06:13:35;;;;;;;8.00;3.60;;;;;;;-11.28;74.63;97780.63;106494;1254;24232;-70
2023/02/08 06:16:05;;;;;;;9.50;3.80;;;;;;;-11.24;74.41;97783.80;106556;1276;23497;-70
2023/02/08 06:18:33;;;;;;;10.10;4.90;;;;;;;-11.04;75.12;97787.23;106478;1276;24413;-65
2023/02/08 06:21:02;;;;;;;6.60;3.30;;;;;;;-10.87;74.76;97786.02;106527;1276;22842;-67
2023/02/08 06:23:30;;;;;;;65.30;21.00;;;;;;;-10.85;74.04;97787.30;106611;1276;22730;-65
2023/02/08 06:25:58;;;;;;;40.20;12.90;;;;;;;-10.82;74.06;97783.60;106634;1276;22549;-67
2023/02/08 06:28:27;;;;;;;47.90;20.20;;;;;;;-10.82;73.91;97786.00;106474;1276;22768;-66
2023/02/08 06:30:55;;;;;;;58.10;23.50;;;;;;;-10.79;74.01;97786.34;106618;1276;22663;-68
2023/02/08 06:33:24;;;;;;;66.90;30.10;;;;;;;-10.68;74.03;97788.79;106378;1276;22548;-65
2023/02/08 06:35:52;;;;;;;59.70;27.80;;;;;;;-10.57;74.15;97793.90;106574;1270;26830;-64
2023/02/08 06:38:21;;;;;;;144.00;50.90;;;;;;;-10.40;74.40;97786.69;106713;1276;22645;-64
2023/02/08 06:40:49;;;;;;;83.30;36.30;;;;;;;-10.25;73.72;97784.70;106634;1276;23763;-69
2023/02/08 06:43:18;;;;;;;33.30;14.70;;;;;;;-10.22;73.07;97789.89;106687;1253;22945;-64
2023/02/08 06:45:46;;;;;;;38.10;17.20;;;;;;;-10.20;73.52;97792.49;106391;1276;22789;-73
2023/02/08 06:48:14;;;;;;;25.30;12.30;;;;;;;-10.03;73.89;97790.16;106275;1276;22756;-67
2023/02/08 06:50:43;;;;;;;51.80;20.80;;;;;;;-9.92;73.66;97792.63;106344;1276;23928;-66
2023/02/08 06:53:11;;;;;;;44.70;22.30;;;;;;;-9.93;73.65;97794.06;106449;1276;24592;-65
2023/02/08 06:55:39;;;;;;;50.10;22.20;;;;;;;-9.93;74.27;97797.73;106520;1276;22634;-68
2023/02/08 06:58:08;;;;;;;50.00;21.60;;;;;;;-9.86;74.96;97798.13;106530;1276;25202;-63
2023/02/08 07:00:37;;;;;;;50.70;23.80;;;;;;;-9.72;74.42;97796.36;106583;1276;25517;-63
2023/02/08 07:03:08;;;;;;;54.10;24.80;;;;;;;-9.64;74.27;97792.68;106545;1276;22629;-65
2023/02/08 07:05:36;;;;;;;64.80;30.50;;;;;;;-9.54;74.19;97795.98;106532;1276;24183;-67
2023/02/08 07:08:06;;;;;;;91.20;42.40;;;;;;;-9.28;74.88;97795.35;106576;1276;25566;-66
2023/02/08 07:10:34;;;;;;;83.20;37.00;;;;;;;-8.91;74.59;97792.20;106545;1262;22932;-64
2023/02/08 07:13:02;;;;;;;56.60;27.40;;;;;;;-8.50;74.39;97789.23;106640;1276;22713;-65
2023/02/08 07:15:31;;;;;;;34.70;16.80;;;;;;;-8.21;73.03;97787.00;106626;1276;22696;-62
2023/02/08 07:18:00;;;;;;;30.70;14.70;;;;;;;-8.02;72.07;97785.05;106336;1253;23027;-66
2023/02/08 07:20:28;;;;;;;28.20;13.30;;;;;;;-7.87;71.66;97789.83;107577;1276;22624;-64
2023/02/08 07:22:56;;;;;;;28.00;12.10;;;;;;;-7.66;71.57;97785.64;106479;1276;24224;-69
2023/02/08 07:25:25;;;;;;;30.40;13.80;;;;;;;-7.53;70.26;97794.48;106456;1276;22851;-67
2023/02/08 07:27:53;;;;;;;41.60;20.70;;;;;;;-7.52;70.04;97789.89;109896;1276;22578;-68
2023/02/08 07:30:21;;;;;;;36.00;17.70;;;;;;;-7.37;70.26;97792.22;106297;1276;24001;-68
2023/02/08 07:32:49;;;;;;;31.20;16.20;;;;;;;-7.32;69.56;97793.31;106521;1276;25500;-68
2023/02/08 07:35:18;;;;;;;35.80;17.10;;;;;;;-7.33;69.85;97797.14;106654;1276;24367;-68
2023/02/08 07:37:46;;;;;;;40.60;18.70;;;;;;;-7.18;70.32;97797.13;106749;1276;22663;-64
2023/02/08 07:40:14;;;;;;;40.00;19.90;;;;;;;-7.08;70.01;97802.23;106392;1276;24330;-64
2023/02/08 07:42:42;;;;;;;44.40;22.00;;;;;;;-6.96;69.82;97805.64;106942;1276;22768;-66
2023/02/08 07:45:23;;;;;;;41.70;20.10;;;;;;;-6.74;69.91;97801.80;106615;1276;22744;-67
2023/02/08 07:47:51;;;;;;;49.80;24.00;;;;;;;-6.56;69.75;97801.20;107053;1260;22534;-64
2023/02/08 07:50:19;;;;;;;49.50;23.10;;;;;;;-6.26;69.94;97799.23;106575;1275;22551;-70
2023/02/08 07:52:47;;;;;;;40.60;22.10;;;;;;;-5.95;69.08;97798.43;106486;1276;22791;-65
2023/02/08 07:55:16;;;;;;;49.20;23.60;;;;;;;-5.72;67.88;97803.48;106348;1276;24202;-65
2023/02/08 07:57:46;;;;;;;51.50;24.90;;;;;;;-5.59;67.78;97802.66;106301;1276;22524;-67
2023/02/08 08:00:17;;;;;;;50.20;24.70;;;;;;;-5.47;67.02;97808.55;106620;1276;24267;-64
2023/02/08 08:02:45;;;;;;;52.10;25.00;;;;;;;-5.30;67.31;97811.73;106620;1276;22531;-67
2023/02/08 08:05:13;;;;;;;53.70;26.70;;;;;;;-5.18;66.46;97816.96;108087;1276;22527;-67
2023/02/08 08:07:41;;;;;;;57.40;28.70;;;;;;;-5.18;65.83;97820.42;106377;1264;22715;-67
2023/02/08 08:10:10;;;;;;;95.80;46.40;;;;;;;-5.21;65.92;97819.48;108797;1275;22589;-64
2023/02/08 08:12:38;;;;;;;88.80;47.10;;;;;;;-5.05;66.45;97821.91;106591;1275;22535;-66
2023/02/08 08:15:06;;;;;;;106.50;52.00;;;;;;;-4.89;65.81;97823.01;106488;1275;23897;-67
2023/02/08 08:17:34;;;;;;;99.70;53.50;;;;;;;-4.88;64.85;97822.34;110308;1275;25462;-65
2023/02/08 08:20:03;;;;;;;104.80;54.40;;;;;;;-4.86;64.90;97824.94;106493;1275;22526;-66
2023/02/08 08:22:31;;;;;;;144.30;78.80;;;;;;;-4.73;64.71;97826.46;106763;1263;22715;-66
2023/02/08 08:24:59;;;;;;;58.20;31.40;;;;;;;-4.68;65.19;97832.46;106868;1275;22585;-68
2023/02/08 08:27:27;;;;;;;35.80;19.50;;;;;;;-4.58;65.76;97832.89;106429;1275;22650;-65
2023/02/08 08:29:55;;;;;;;30.80;16.00;;;;;;;-4.32;65.74;97837.45;106440;1275;23344;-69
2023/02/08 08:32:24;;;;;;;34.20;16.20;;;;;;;-4.16;65.53;97840.32;106423;1275;22760;-64
2023/02/08 08:34:52;;;;;;;32.60;17.70;;;;;;;-4.05;65.58;97838.85;110521;1275;22218;-66
2023/02/08 08:37:20;;;;;;;32.80;18.30;;;;;;;-3.99;65.62;97840.68;107029;1275;25552;-66
2023/02/08 08:39:48;;;;;;;35.70;20.50;;;;;;;-3.87;65.93;97839.02;106493;1275;22782;-62
2023/02/08 08:42:17;;;;;;;16.60;10.10;;;;;;;-3.76;66.54;97838.42;106503;1275;24247;-61
2023/02/08 08:44:46;;;;;;;25.30;13.80;;;;;;;-3.65;67.29;97841.09;106451;1275;22583;-66
2023/02/08 08:47:14;;;;;;;37.00;18.60;;;;;;;-3.46;67.60;97843.31;106414;1253;22533;-66
2023/02/08 08:49:43;;;;;;;30.60;15.90;;;;;;;-3.39;67.35;97849.83;106605;1275;25414;-68
2023/02/08 08:52:12;;;;;;;22.10;12.70;;;;;;;-3.32;67.13;97853.96;106646;1275;24269;-65
2023/02/08 08:54:40;;;;;;;16.90;11.00;;;;;;;-3.22;67.05;97853.80;106844;1275;23022;-70
2023/02/08 08:57:08;;;;;;;17.70;10.10;;;;;;;-3.13;66.87;97857.17;106370;1268;22763;-66
2023/02/08 08:59:36;;;;;;;20.00;11.60;;;;;;;-3.06;66.37;97850.77;106399;1275;22521;-68
2023/02/08 09:02:04;;;;;;;18.70;10.10;;;;;;;-2.88;66.65;97853.24;106392;1275;22534;-65
2023/02/08 09:04:33;;;;;;;18.90;10.00;;;;;;;-2.81;65.51;97851.35;106690;1275;25322;-65
2023/02/08 09:07:01;;;;;;;19.90;11.60;;;;;;;-2.77;65.09;97852.64;106813;1275;25348;-66
2023/02/08 09:09:29;;;;;;;23.70;13.50;;;;;;;-2.73;64.87;97855.86;106224;1275;24448;-68
2023/02/08 09:11:58;;;;;;;25.70;12.80;;;;;;;-2.60;65.02;97854.13;106510;1275;22521;-65
2023/02/08 09:14:26;;;;;;;18.60;10.40;;;;;;;-2.43;64.81;97852.89;106332;1275;22553;-65
2023/02/08 09:16:54;;;;;;;21.00;11.90;;;;;;;-2.38;64.35;97854.06;106388;1275;25509;-66
2023/02/08 09:19:23;;;;;;;28.60;13.80;;;;;;;-2.34;64.47;97851.21;107125;1275;22526;-68
2023/02/08 09:21:51;;;;;;;25.60;13.20;;;;;;;-2.30;64.39;97856.50;106258;1270;24276;-65
2023/02/08 09:24:19;;;;;;;26.60;12.30;;;;;;;-2.14;64.52;97855.98;106323;1275;23232;-66
2023/02/08 09:26:47;;;;;;;18.50;11.40;;;;;;;-2.01;64.13;97863.48;106718;1268;24230;-67
2023/02/08 09:29:15;;;;;;;22.80;11.90;;;;;;;-1.85;63.97;97863.13;110271;1275;22584;-67
2023/02/08 09:31:44;;;;;;;23.40;12.30;;;;;;;-1.69;63.34;97862.95;106636;1275;22539;-77
2023/02/08 09:34:12;;;;;;;22.90;13.30;;;;;;;-1.49;62.84;97865.45;106504;1275;22786;-73
2023/02/08 09:36:41;;;;;;;27.00;15.70;;;;;;;-1.30;62.20;97864.43;106557;1275;25384;-71
2023/02/08 09:39:16;;;;;;;29.70;17.20;;;;;;;-1.24;61.65;97866.19;106557;1275;25776;-76
2023/02/08 09:42:09;;;;;;;28.40;16.10;;;;;;;-1.23;61.13;97858.31;106570;1275;24325;-73
2023/02/08 09:44:56;;;;;;;37.40;20.50;;;;;;;-1.02;61.23;97854.45;106547;1275;22637;-64
2023/02/08 09:47:36;;;;;;;38.20;20.00;;;;;;;-1.08;60.15;97855.25;106502;1275;25406;-75
2023/02/08 09:50:19;;;;;;;36.00;17.80;;;;;;;-0.93;60.29;97858.65;106421;1265;23127;-68
2023/02/08 09:53:01;;;;;;;37.40;20.80;;;;;;;-0.81;60.45;97855.56;107344;1275;22546;-74
2023/02/08 09:55:43;;;;;;;29.70;16.30;;;;;;;-0.59;60.14;97851.69;106712;1275;22546;-68
2023/02/08 09:58:20;;;;;;;34.60;17.80;;;;;;;-0.46;58.84;97844.70;106367;1275;24194;-65
2023/02/08 10:00:50;;;;;;;34.70;19.20;;;;;;;-0.40;58.45;97839.16;107861;1269;24022;-64
2023/02/08 10:03:40;;;;;;;58.50;28.50;;;;;;;-0.36;58.41;97840.33;108044;1269;25364;-64
2023/02/08 10:06:11;;;;;;;30.40;17.60;;;;;;;-0.11;58.07;97838.85;106532;1268;24201;-64
2023/02/08 10:08:41;;;;;;;29.70;15.50;;;;;;;-0.04;57.33;97840.98;106521;1269;25307;-64
2023/02/08 10:11:32;;;;;;;31.00;16.90;;;;;;;-0.04;56.90;97843.06;106585;1271;27100;-64
2023/02/08 10:14:34;;;;;;;296.30;127.20;;;;;;;0.03;57.40;97841.02;106507;1269;22543;-64
2023/02/08 10:17:24;;;;;;;31.00;18.20;;;;;;;0.22;56.96;97839.00;106552;1269;24387;-67
2023/02/08 10:20:17;;;;;;;46.50;26.30;;;;;;;0.30;56.46;97838.58;106563;1269;22541;-66
2023/02/08 10:23:23;;;;;;;36.70;18.60;;;;;;;0.58;57.17;97837.61;106818;1271;22663;-65
2023/02/08 10:25:59;;;;;;;27.80;16.40;;;;;;;0.92;55.86;97840.16;106969;1275;22542;-62
2023/02/08 10:28:47;;;;;;;25.60;16.10;;;;;;;1.25;54.97;97837.28;106564;1275;22536;-63
2023/02/08 10:31:55;;;;;;;21.10;12.80;;;;;;;1.70;53.43;97832.19;106619;1275;22528;-64
2023/02/08 10:34:47;;;;;;;19.40;12.60;;;;;;;2.06;51.65;97830.02;106580;1275;22657;-64
2023/02/08 10:37:23;;;;;;;18.30;12.00;;;;;;;2.43;50.92;97833.08;106633;1275;22536;-64
2023/02/08 10:39:52;;;;;;;23.60;16.00;;;;;;;2.75;49.48;97829.19;106553;1275;25426;-64
2023/02/08 10:42:23;;;;;;;18.30;12.60;;;;;;;3.13;47.82;97825.59;106621;1275;22773;-64
2023/02/08 10:45:17;;;;;;;17.30;10.80;;;;;;;3.42;46.73;97818.73;106656;1275;24219;-64
2023/02/08 10:47:59;;;;;;;15.90;10.40;;;;;;;3.85;45.32;97811.38;106762;1275;22652;-65
2023/02/08 10:50:32;;;;;;;17.60;11.10;;;;;;;3.91;44.22;97808.52;106601;1275;24294;-66
2023/02/08 10:53:00;;;;;;;15.60;10.20;;;;;;;4.04;43.22;97808.70;106579;1275;22636;-67
2023/02/08 10:55:31;;;;;;;13.20;9.40;;;;;;;4.37;43.05;97807.67;106614;1275;22527;-66
2023/02/08 10:58:05;;;;;;;13.00;9.10;;;;;;;4.51;42.29;97805.62;106661;1275;24449;-66
2023/02/08 11:00:40;;;;;;;15.70;10.00;;;;;;;4.53;41.02;97810.73;106691;1275;24325;-67
2023/02/08 11:03:20;;;;;;;15.20;9.80;;;;;;;4.66;41.27;97812.66;106618;1275;22526;-67
2023/02/08 11:05:49;;;;;;;18.20;12.10;;;;;;;4.99;40.99;97807.52;106667;1275;22539;-67
2023/02/08 11:08:21;;;;;;;14.70;9.90;;;;;;;5.25;39.12;97801.34;106561;1275;22573;-67
2023/02/08 11:11:01;;;;;;;25.80;21.40;;;;;;;5.33;38.63;97803.38;106588;1275;22526;-67
2023/02/08 11:13:40;;;;;;;18.00;12.30;;;;;;;5.41;37.95;97803.15;106637;1275;22533;-67
2023/02/08 11:16:21;;;;;;;14.30;10.00;;;;;;;5.81;39.07;97803.20;106565;1275;24066;-67
2023/02/08 11:18:54;;;;;;;23.50;18.50;;;;;;;5.95;37.26;97800.40;106663;1275;22536;-67
2023/02/08 11:21:32;;;;;;;17.90;13.80;;;;;;;6.07;36.44;97798.70;106698;1268;22538;-67
2023/02/08 11:24:14;;;;;;;19.40;13.40;;;;;;;6.37;36.32;97792.20;106589;1275;22649;-67
2023/02/08 11:26:42;;;;;;;15.50;11.70;;;;;;;6.76;36.17;97791.01;106584;1275;24242;-67
2023/02/08 11:29:13;;;;;;;14.70;11.20;;;;;;;6.73;34.94;97789.73;106550;1275;25413;-67
2023/02/08 11:31:57;;;;;;;13.40;10.20;;;;;;;7.01;35.11;97786.02;106597;1275;25409;-67
2023/02/08 11:34:37;;;;;;;21.10;17.30;;;;;;;7.20;34.63;97785.00;106585;1275;23007;-67
2023/02/08 11:37:27;;;;;;;45.80;35.20;;;;;;;7.37;33.64;97779.90;106585;1275;25496;-67
2023/02/08 11:39:58;;;;;;;40.00;29.80;;;;;;;7.33;32.92;97781.02;106645;1275;25292;-67